createdAt,value
2023-08-15T00:00:23.105Z,24.01
2023-08-15T00:02:50.071Z,24.00
2023-08-15T00:04:53.232Z,23.96
2023-08-15T00:07:00.016Z,23.93
2023-08-15T00:09:04.155Z,23.91
2023-08-15T00:11:07.974Z,23.87
2023-08-15T00:13:12.666Z,23.83
2023-08-15T00:15:15.516Z,23.81
2023-08-15T00:17:18.940Z,23.79
2023-08-15T00:19:22.995Z,23.77
2023-08-15T00:21:25.704Z,23.77
2023-08-15T00:23:34.364Z,23.76
2023-08-15T00:25:37.931Z,23.75
2023-08-15T00:27:41.625Z,23.72
2023-08-15T00:29:44.912Z,23.70
2023-08-15T00:31:48.555Z,23.68
2023-08-15T00:33:52.765Z,23.65
2023-08-15T00:35:56.465Z,23.61
2023-08-15T00:37:59.812Z,23.59
2023-08-15T00:40:03.526Z,23.57
2023-08-15T00:42:06.477Z,23.54
2023-08-15T00:44:10.364Z,23.48
2023-08-15T00:46:15.826Z,23.44
2023-08-15T00:48:23.617Z,23.43
2023-08-15T00:50:29.079Z,23.41
2023-08-15T00:52:33.563Z,23.41
2023-08-15T00:54:37.385Z,23.41
2023-08-15T00:56:41.400Z,23.39
2023-08-15T00:58:46.046Z,23.37
2023-08-15T01:00:54.270Z,23.34
2023-08-15T01:02:57.211Z,23.32
2023-08-15T01:05:01.060Z,23.29
2023-08-15T01:07:04.204Z,23.27
2023-08-15T01:09:07.066Z,23.25
2023-08-15T01:11:11.242Z,23.24
2023-08-15T01:13:28.065Z,23.23
2023-08-15T01:15:35.628Z,23.21
2023-08-15T01:17:50.009Z,23.20
2023-08-15T01:19:55.489Z,23.18
2023-08-15T01:22:00.134Z,23.13
2023-08-15T01:24:06.808Z,23.10
2023-08-15T01:26:09.885Z,23.08
2023-08-15T01:28:14.002Z,23.08
2023-08-15T01:30:22.294Z,23.08
2023-08-15T01:32:43.890Z,23.08
2023-08-15T01:35:01.271Z,23.09
2023-08-15T01:37:20.683Z,23.10
2023-08-15T01:39:29.170Z,23.08
2023-08-15T01:41:36.856Z,23.03
2023-08-15T01:43:40.933Z,22.98
2023-08-15T01:45:43.860Z,22.94
2023-08-15T01:47:47.614Z,22.87
2023-08-15T01:49:50.845Z,22.80
2023-08-15T01:51:56.305Z,22.76
2023-08-15T01:54:03.871Z,22.76
2023-08-15T01:56:07.150Z,22.78
2023-08-15T01:58:11.426Z,22.79
2023-08-15T02:00:16.577Z,22.80
2023-08-15T02:02:19.735Z,22.79
2023-08-15T02:04:25.433Z,22.77
2023-08-15T02:06:34.739Z,22.75
2023-08-15T02:08:39.576Z,22.73
2023-08-15T02:10:43.418Z,22.71
2023-08-15T02:12:47.764Z,22.66
2023-08-15T02:14:52.179Z,22.65
2023-08-15T02:16:55.925Z,22.66
2023-08-15T02:18:58.600Z,22.68
2023-08-15T02:21:01.886Z,22.70
2023-08-15T02:23:04.756Z,22.71
2023-08-15T02:25:13.485Z,22.70
2023-08-15T02:27:19.115Z,22.68
2023-08-15T02:29:22.168Z,22.66
2023-08-15T02:31:27.992Z,22.62
2023-08-15T02:33:31.124Z,22.55
2023-08-15T02:35:42.734Z,22.47
2023-08-15T02:37:45.999Z,22.42
2023-08-15T02:39:49.707Z,22.39
2023-08-15T02:41:55.053Z,22.40
2023-08-15T02:44:00.126Z,22.40
2023-08-15T02:46:06.240Z,22.40
2023-08-15T02:48:12.681Z,22.37
2023-08-15T02:50:17.324Z,22.37
2023-08-15T02:52:20.041Z,22.39
2023-08-15T02:54:24.201Z,22.42
2023-08-15T02:56:27.116Z,22.45
2023-08-15T02:58:29.837Z,22.47
2023-08-15T03:00:34.016Z,22.47
2023-08-15T03:02:37.276Z,22.47
2023-08-15T03:04:40.256Z,22.48
2023-08-15T03:06:43.895Z,22.48
2023-08-15T03:08:48.553Z,22.48
2023-08-15T03:10:52.159Z,22.48
2023-08-15T03:12:58.888Z,22.48
2023-08-15T03:15:04.733Z,22.50
2023-08-15T03:17:08.850Z,22.50
2023-08-15T03:19:11.997Z,22.50
2023-08-15T03:21:15.193Z,22.49
2023-08-15T03:23:18.042Z,22.48
2023-08-15T03:25:21.234Z,22.47
2023-08-15T03:27:24.146Z,22.46
2023-08-15T03:29:28.560Z,22.45
2023-08-15T03:31:39.013Z,22.44
2023-08-15T03:33:42.183Z,22.43
2023-08-15T03:35:50.967Z,22.43
2023-08-15T03:37:54.045Z,22.43
2023-08-15T03:39:57.814Z,22.42
2023-08-15T03:42:00.591Z,22.40
2023-08-15T03:44:05.966Z,22.37
2023-08-15T03:46:09.676Z,22.31
2023-08-15T03:48:13.480Z,22.31
2023-08-15T03:50:17.929Z,22.30
2023-08-15T03:52:20.553Z,22.29
2023-08-15T03:54:23.700Z,22.29
2023-08-15T03:56:27.411Z,22.29
2023-08-15T03:58:31.382Z,22.31
2023-08-15T04:00:34.234Z,22.33
2023-08-15T04:02:36.864Z,22.32
2023-08-15T04:04:39.541Z,22.32
2023-08-15T04:06:42.604Z,22.31
2023-08-15T04:08:46.654Z,22.30
2023-08-15T04:10:51.950Z,22.29
2023-08-15T04:12:55.015Z,22.27
2023-08-15T04:14:58.634Z,22.27
2023-08-15T04:17:01.638Z,22.26
2023-08-15T04:19:05.309Z,22.28
2023-08-15T04:21:09.412Z,22.26
2023-08-15T04:23:12.509Z,22.26
2023-08-15T04:25:15.564Z,22.24
2023-08-15T04:27:19.484Z,22.23
2023-08-15T04:29:23.485Z,22.18
2023-08-15T04:31:26.535Z,22.11
2023-08-15T04:33:31.316Z,22.05
2023-08-15T04:35:34.918Z,22.04
2023-08-15T04:37:37.569Z,22.02
2023-08-15T04:39:40.315Z,22.01
2023-08-15T04:41:43.437Z,22.03
2023-08-15T04:43:48.606Z,22.01
2023-08-15T04:45:52.823Z,22.02
2023-08-15T04:47:59.865Z,22.04
2023-08-15T04:50:04.028Z,22.04
2023-08-15T04:52:16.262Z,22.02
2023-08-15T04:54:21.851Z,22.01
2023-08-15T04:56:25.509Z,22.05
2023-08-15T04:58:29.246Z,22.07
2023-08-15T05:00:35.116Z,22.08
2023-08-15T05:02:41.534Z,22.07
2023-08-15T05:04:44.270Z,22.06
2023-08-15T05:06:47.066Z,22.09
2023-08-15T05:08:51.677Z,22.13
2023-08-15T05:10:55.468Z,22.15
2023-08-15T05:13:00.402Z,22.17
2023-08-15T05:15:09.010Z,22.21
2023-08-15T05:17:11.960Z,22.25
2023-08-15T05:19:18.436Z,22.24
2023-08-15T05:21:22.514Z,22.21
2023-08-15T05:23:25.696Z,22.19
2023-08-15T05:25:28.604Z,22.17
2023-08-15T05:27:34.496Z,22.15
2023-08-15T05:29:41.692Z,22.08
2023-08-15T05:31:44.710Z,22.03
2023-08-15T05:33:50.522Z,22.01
2023-08-15T05:35:53.341Z,22.05
2023-08-15T05:37:56.215Z,22.10
2023-08-15T05:40:05.184Z,22.17
2023-08-15T05:42:08.414Z,22.26
2023-08-15T05:44:11.878Z,22.28
2023-08-15T05:46:21.590Z,22.31
2023-08-15T05:48:24.713Z,22.34
2023-08-15T05:50:28.760Z,22.36
2023-08-15T05:52:31.740Z,22.37
2023-08-15T05:54:35.852Z,22.43
2023-08-15T05:56:39.444Z,22.51
2023-08-15T05:58:45.365Z,22.61
2023-08-15T06:00:49.008Z,22.68
2023-08-15T06:02:51.731Z,22.72
2023-08-15T06:04:55.909Z,22.77
2023-08-15T06:06:58.797Z,22.81
2023-08-15T06:09:03.993Z,22.89
2023-08-15T06:11:07.142Z,22.95
2023-08-15T06:13:10.617Z,22.99
2023-08-15T06:15:13.920Z,23.00
2023-08-15T06:17:18.458Z,23.01
2023-08-15T06:19:22.732Z,23.05
2023-08-15T06:21:26.590Z,23.10
2023-08-15T06:23:29.733Z,23.15
2023-08-15T06:25:35.218Z,23.24
2023-08-15T06:27:38.864Z,23.35
2023-08-15T06:29:43.640Z,23.44
2023-08-15T06:31:46.750Z,23.49
2023-08-15T06:33:52.257Z,23.55
2023-08-15T06:35:57.309Z,23.59
2023-08-15T06:38:02.091Z,23.63
2023-08-15T06:40:09.684Z,23.66
2023-08-15T06:42:12.347Z,23.68
2023-08-15T06:44:15.146Z,23.68
2023-08-15T06:46:18.979Z,23.70
2023-08-15T06:48:24.257Z,23.73
2023-08-15T06:50:29.858Z,23.74
2023-08-15T06:52:36.772Z,23.77
2023-08-15T06:54:40.836Z,23.81
2023-08-15T06:56:43.777Z,23.85
2023-08-15T06:58:46.759Z,23.88
2023-08-15T07:00:52.172Z,23.88
2023-08-15T07:02:55.438Z,23.87
2023-08-15T07:05:00.835Z,23.88
2023-08-15T07:07:05.395Z,23.93
2023-08-15T07:09:10.778Z,23.99
2023-08-15T07:11:13.807Z,24.06
2023-08-15T07:13:16.481Z,24.12
2023-08-15T07:15:20.107Z,24.19
2023-08-15T07:17:22.809Z,24.27
2023-08-15T07:19:25.861Z,24.33
2023-08-15T07:21:29.424Z,24.39
2023-08-15T07:23:32.161Z,24.44
2023-08-15T07:25:47.491Z,24.45
2023-08-15T07:27:51.454Z,24.49
2023-08-15T07:29:55.732Z,24.51
2023-08-15T07:31:58.820Z,24.54
2023-08-15T07:34:05.640Z,24.61
2023-08-15T07:36:13.257Z,24.64
2023-08-15T07:38:38.405Z,24.70
2023-08-15T07:40:43.219Z,24.79
2023-08-15T07:42:51.250Z,24.87
2023-08-15T07:44:55.441Z,24.90
2023-08-15T07:47:00.413Z,24.96
2023-08-15T07:49:04.691Z,25.02
2023-08-15T07:51:07.931Z,25.05
2023-08-15T07:53:11.649Z,25.08
2023-08-15T07:55:14.339Z,25.11
2023-08-15T07:57:17.170Z,25.15
2023-08-15T07:59:20.027Z,25.19
2023-08-15T08:01:23.827Z,25.25
2023-08-15T08:03:39.870Z,25.28
2023-08-15T08:05:43.154Z,25.35
2023-08-15T08:07:46.564Z,25.42
2023-08-15T08:09:51.473Z,25.48
2023-08-15T08:11:54.169Z,25.54
2023-08-15T08:13:57.197Z,25.59
2023-08-15T08:16:01.056Z,25.64
2023-08-15T08:18:05.093Z,25.65
2023-08-15T08:20:17.285Z,25.63
2023-08-15T08:22:21.568Z,25.59
2023-08-15T08:24:27.367Z,25.60
2023-08-15T08:26:32.720Z,25.62
2023-08-15T08:28:40.376Z,25.59
2023-08-15T08:30:43.536Z,25.54
2023-08-15T08:32:47.065Z,25.53
2023-08-15T08:34:49.981Z,25.55
2023-08-15T08:36:55.416Z,25.61
2023-08-15T08:38:59.904Z,25.67
2023-08-15T08:41:03.313Z,25.70
2023-08-15T08:43:06.561Z,25.74
2023-08-15T08:45:15.786Z,25.80
2023-08-15T08:47:24.614Z,25.82
2023-08-15T08:49:28.859Z,25.86
2023-08-15T08:51:35.362Z,25.91
2023-08-15T08:53:45.328Z,25.95
2023-08-15T08:55:49.370Z,25.96
2023-08-15T08:57:54.680Z,25.99
2023-08-15T08:59:59.348Z,25.99
2023-08-15T09:02:03.749Z,25.99
2023-08-15T09:04:08.033Z,26.02
2023-08-15T09:06:13.576Z,26.04
2023-08-15T09:08:17.869Z,26.11
2023-08-15T09:10:24.524Z,26.18
2023-08-15T09:12:41.847Z,26.24
2023-08-15T09:14:52.175Z,26.29
2023-08-15T09:16:55.648Z,26.35
2023-08-15T09:19:02.090Z,26.42
2023-08-15T09:21:11.967Z,26.50
2023-08-15T09:23:16.401Z,26.49
2023-08-15T09:25:20.130Z,26.47
2023-08-15T09:27:23.423Z,26.40
2023-08-15T09:29:27.930Z,26.34
2023-08-15T09:31:31.121Z,26.29
2023-08-15T09:33:36.107Z,26.34
2023-08-15T09:35:52.994Z,26.40
2023-08-15T09:38:07.428Z,26.48
2023-08-15T09:40:18.214Z,26.54
2023-08-15T09:42:21.661Z,26.56
2023-08-15T09:44:35.577Z,26.55
2023-08-15T09:46:49.306Z,26.62
2023-08-15T09:48:58.694Z,26.71
2023-08-15T09:51:04.604Z,26.79
2023-08-15T09:53:08.886Z,26.83
2023-08-15T09:55:15.479Z,26.82
2023-08-15T09:57:18.626Z,26.80
2023-08-15T09:59:27.267Z,26.79
2023-08-15T10:01:31.990Z,26.81
2023-08-15T10:03:42.737Z,26.83
2023-08-15T10:05:52.257Z,26.85
2023-08-15T10:07:58.450Z,26.87
2023-08-15T10:10:04.477Z,26.91
2023-08-15T10:12:10.342Z,26.99
2023-08-15T10:14:17.260Z,27.06
2023-08-15T10:16:20.513Z,27.13
2023-08-15T10:18:24.812Z,27.20
2023-08-15T10:20:39.442Z,27.27
2023-08-15T10:22:42.713Z,27.31
2023-08-15T10:24:46.116Z,27.36
2023-08-15T10:26:54.777Z,27.46
2023-08-15T10:28:57.529Z,27.50
2023-08-15T10:31:00.397Z,27.52
2023-08-15T10:33:14.524Z,27.53
2023-08-15T10:35:32.342Z,27.54
2023-08-15T10:37:42.380Z,27.50
2023-08-15T10:40:05.814Z,27.50
2023-08-15T10:42:09.094Z,27.50
2023-08-15T10:44:13.411Z,27.49
2023-08-15T10:46:26.360Z,27.49
2023-08-15T10:49:04.268Z,27.51
2023-08-15T10:51:18.332Z,27.52
2023-08-15T10:53:21.023Z,27.53
2023-08-15T10:55:28.861Z,27.54
2023-08-15T10:57:35.248Z,27.57
2023-08-15T10:59:40.618Z,27.61
2023-08-15T11:01:45.285Z,27.63
2023-08-15T11:03:52.266Z,27.67
2023-08-15T11:06:15.321Z,27.70
2023-08-15T11:08:21.066Z,27.74
2023-08-15T11:10:23.897Z,27.77
2023-08-15T11:12:27.565Z,27.78
2023-08-15T11:14:30.193Z,27.81
2023-08-15T11:16:33.423Z,27.84
2023-08-15T11:18:37.812Z,27.84
2023-08-15T11:20:40.584Z,27.86
2023-08-15T11:22:56.585Z,27.89
2023-08-15T11:25:00.826Z,27.92
2023-08-15T11:27:07.409Z,27.93
2023-08-15T11:29:12.148Z,27.96
2023-08-15T11:31:22.661Z,27.98
2023-08-15T11:33:29.949Z,27.98
2023-08-15T11:35:36.272Z,27.99
2023-08-15T11:37:41.405Z,28.01
2023-08-15T11:39:56.407Z,28.02
2023-08-15T11:42:03.742Z,28.03
2023-08-15T11:44:06.769Z,28.04
2023-08-15T11:46:09.888Z,28.04
2023-08-15T11:48:14.253Z,28.04
2023-08-15T11:50:27.355Z,28.04
2023-08-15T11:52:46.606Z,28.06
2023-08-15T11:54:49.752Z,28.07
2023-08-15T11:56:55.574Z,28.08
2023-08-15T11:59:07.443Z,28.10
2023-08-15T12:01:11.241Z,28.15
2023-08-15T12:03:14.107Z,28.18
2023-08-15T12:05:19.428Z,28.20
2023-08-15T12:07:22.574Z,28.22
2023-08-15T12:09:30.732Z,28.25
2023-08-15T12:11:36.193Z,28.28
2023-08-15T12:13:41.349Z,28.31
2023-08-15T12:15:44.238Z,28.34
2023-08-15T12:17:47.372Z,28.36
2023-08-15T12:19:50.114Z,28.38
2023-08-15T12:21:55.626Z,28.39
2023-08-15T12:23:59.910Z,28.40
2023-08-15T12:26:02.701Z,28.39
2023-08-15T12:28:07.061Z,28.38
2023-08-15T12:30:13.696Z,28.36
2023-08-15T12:32:21.818Z,28.36
2023-08-15T12:34:24.852Z,28.34
2023-08-15T12:36:27.638Z,28.36
2023-08-15T12:38:30.922Z,28.38
2023-08-15T12:40:33.725Z,28.39
2023-08-15T12:42:41.607Z,28.40
2023-08-15T12:45:02.054Z,28.36
2023-08-15T12:47:05.371Z,28.36
2023-08-15T12:49:08.089Z,28.38
2023-08-15T12:51:11.211Z,28.40
2023-08-15T12:53:14.025Z,28.46
2023-08-15T12:55:17.373Z,28.51
2023-08-15T12:57:27.473Z,28.55
2023-08-15T12:59:30.098Z,28.58
2023-08-15T13:01:33.873Z,28.64
2023-08-15T13:03:38.870Z,28.70
2023-08-15T13:05:44.694Z,28.74
2023-08-15T13:07:48.822Z,28.76
2023-08-15T13:09:52.406Z,28.76
2023-08-15T13:11:56.528Z,28.76
2023-08-15T13:14:00.524Z,28.77
2023-08-15T13:16:07.107Z,28.76
2023-08-15T13:18:10.158Z,28.77
2023-08-15T13:20:13.210Z,28.76
2023-08-15T13:22:16.861Z,28.74
2023-08-15T13:24:19.766Z,28.73
2023-08-15T13:26:22.920Z,28.74
2023-08-15T13:28:25.591Z,28.74
2023-08-15T13:30:31.347Z,28.71
2023-08-15T13:32:33.952Z,28.67
2023-08-15T13:34:36.760Z,28.64
2023-08-15T13:36:42.055Z,28.60
2023-08-15T13:38:47.344Z,28.57
2023-08-15T13:40:52.531Z,28.52
2023-08-15T13:42:59.125Z,28.49
2023-08-15T13:45:06.021Z,28.44
2023-08-15T13:47:12.233Z,28.41
2023-08-15T13:49:15.118Z,28.35
2023-08-15T13:51:20.219Z,28.31
2023-08-15T13:53:23.527Z,28.30
2023-08-15T13:55:31.042Z,28.29
2023-08-15T13:57:34.608Z,28.27
2023-08-15T13:59:40.171Z,28.29
2023-08-15T14:01:43.734Z,28.31
2023-08-15T14:03:48.965Z,28.33
2023-08-15T14:05:52.180Z,28.39
2023-08-15T14:07:55.059Z,28.46
2023-08-15T14:09:57.792Z,28.54
2023-08-15T14:12:01.107Z,28.61
2023-08-15T14:14:04.500Z,28.66
2023-08-15T14:16:07.426Z,28.68
2023-08-15T14:18:10.382Z,28.70
2023-08-15T14:20:14.939Z,28.80
2023-08-15T14:22:19.690Z,28.94
2023-08-15T14:24:34.281Z,29.07
2023-08-15T14:26:37.608Z,29.20
2023-08-15T14:28:40.225Z,29.30
2023-08-15T14:30:50.096Z,29.41
2023-08-15T14:32:54.855Z,29.51
2023-08-15T14:34:58.905Z,29.57
2023-08-15T14:37:01.853Z,29.66
2023-08-15T14:39:05.475Z,29.76
2023-08-15T14:41:12.570Z,29.87
2023-08-15T14:43:18.221Z,29.99
2023-08-15T14:45:43.720Z,30.10
2023-08-15T14:47:48.060Z,30.21
2023-08-15T14:49:53.694Z,30.30
2023-08-15T14:51:56.275Z,30.40
2023-08-15T14:54:03.551Z,30.48
2023-08-15T14:56:07.577Z,30.55
2023-08-15T14:58:10.958Z,30.64
2023-08-15T15:00:14.920Z,30.72
2023-08-15T15:02:20.995Z,30.80
2023-08-15T15:04:24.912Z,30.76
2023-08-15T15:06:28.810Z,30.71
2023-08-15T15:08:34.642Z,30.69
2023-08-15T15:10:38.882Z,30.63
2023-08-15T15:12:41.891Z,30.69
2023-08-15T15:14:45.390Z,30.82
2023-08-15T15:16:48.593Z,30.97
2023-08-15T15:18:51.876Z,31.06
2023-08-15T15:20:59.396Z,31.17
2023-08-15T15:23:07.162Z,31.34
2023-08-15T15:25:13.286Z,31.50
2023-08-15T15:27:22.549Z,31.60
2023-08-15T15:29:27.045Z,31.65
2023-08-15T15:31:34.351Z,31.78
2023-08-15T15:33:38.076Z,31.91
2023-08-15T15:35:44.602Z,31.97
2023-08-15T15:37:48.693Z,32.04
2023-08-15T15:39:54.201Z,32.13
2023-08-15T15:41:57.444Z,32.14
2023-08-15T15:44:01.997Z,31.95
2023-08-15T15:46:06.803Z,31.76
2023-08-15T15:48:10.679Z,31.73
2023-08-15T15:50:34.844Z,31.88
2023-08-15T15:52:39.221Z,32.03
2023-08-15T15:54:47.552Z,32.21
2023-08-15T15:56:52.777Z,32.45
2023-08-15T15:58:56.710Z,32.66
2023-08-15T16:01:02.270Z,32.72
2023-08-15T16:03:05.558Z,32.77
2023-08-15T16:05:10.077Z,32.90
2023-08-15T16:07:16.191Z,32.99
2023-08-15T16:09:19.004Z,33.06
2023-08-15T16:11:26.167Z,33.15
2023-08-15T16:13:32.002Z,33.24
2023-08-15T16:15:43.272Z,33.37
2023-08-15T16:17:47.854Z,33.50
2023-08-15T16:19:55.646Z,33.61
2023-08-15T16:21:59.250Z,33.65
2023-08-15T16:24:02.140Z,33.44
2023-08-15T16:26:05.072Z,33.17
2023-08-15T16:28:10.225Z,32.91
2023-08-15T16:30:17.972Z,32.62
2023-08-15T16:32:26.963Z,32.38
2023-08-15T16:34:31.369Z,32.21
2023-08-15T16:36:35.744Z,32.08
2023-08-15T16:38:43.781Z,31.95
2023-08-15T16:40:49.176Z,31.82
2023-08-15T16:43:19.238Z,31.75
2023-08-15T16:45:29.940Z,31.67
2023-08-15T16:47:33.485Z,31.59
2023-08-15T16:49:38.466Z,31.49
2023-08-15T16:51:41.838Z,31.41
2023-08-15T16:53:46.210Z,31.34
2023-08-15T16:55:49.091Z,31.25
2023-08-15T16:57:53.394Z,31.16
2023-08-15T16:59:56.808Z,31.11
2023-08-15T17:02:02.710Z,31.04
2023-08-15T17:04:14.970Z,30.95
2023-08-15T17:06:21.885Z,30.92
2023-08-15T17:08:27.182Z,30.86
2023-08-15T17:10:31.897Z,30.80
2023-08-15T17:12:35.662Z,30.74
2023-08-15T17:14:38.721Z,30.70
2023-08-15T17:16:43.195Z,30.65
2023-08-15T17:18:46.219Z,30.62
2023-08-15T17:20:52.079Z,30.59
2023-08-15T17:22:55.713Z,30.55
2023-08-15T17:25:00.138Z,30.50
2023-08-15T17:27:03.377Z,30.44
2023-08-15T17:29:09.453Z,30.38
2023-08-15T17:31:13.371Z,30.32
2023-08-15T17:33:17.685Z,30.26
2023-08-15T17:35:27.863Z,30.21
2023-08-15T17:37:33.220Z,30.16
2023-08-15T17:39:35.871Z,30.12
2023-08-15T17:41:38.525Z,30.08
2023-08-15T17:43:41.214Z,30.02
2023-08-15T17:45:43.803Z,29.98
2023-08-15T17:47:46.698Z,30.05
2023-08-15T17:49:50.720Z,30.14
2023-08-15T17:51:53.404Z,30.12
2023-08-15T17:53:56.400Z,30.05
2023-08-15T17:56:00.306Z,29.95
2023-08-15T17:58:04.339Z,29.85
2023-08-15T18:00:09.319Z,29.73
2023-08-15T18:02:12.181Z,29.64
2023-08-15T18:04:15.928Z,29.54
2023-08-15T18:06:19.121Z,29.44
2023-08-15T18:08:21.681Z,29.34
2023-08-15T18:10:25.827Z,29.27
2023-08-15T18:12:30.666Z,29.20
2023-08-15T18:14:33.790Z,29.13
2023-08-15T18:16:36.723Z,29.03
2023-08-15T18:18:42.261Z,28.94
2023-08-15T18:20:45.344Z,28.85
2023-08-15T18:22:48.080Z,28.79
2023-08-15T18:24:51.523Z,28.72
2023-08-15T18:26:54.816Z,28.65
2023-08-15T18:28:58.350Z,28.57
2023-08-15T18:31:01.133Z,28.51
2023-08-15T18:33:04.812Z,28.46
2023-08-15T18:35:09.193Z,28.40
2023-08-15T18:37:11.838Z,28.35
2023-08-15T18:39:17.748Z,28.30
2023-08-15T18:41:20.903Z,28.26
2023-08-15T18:43:24.614Z,28.22
2023-08-15T18:45:27.750Z,28.17
2023-08-15T18:47:32.056Z,28.13
2023-08-15T18:49:36.064Z,28.12
2023-08-15T18:51:40.619Z,28.11
2023-08-15T18:53:44.341Z,28.09
2023-08-15T18:55:46.910Z,28.08
2023-08-15T18:57:49.621Z,28.07
2023-08-15T18:59:53.914Z,28.05
2023-08-15T19:01:56.948Z,28.03
2023-08-15T19:03:59.795Z,28.00
2023-08-15T19:06:06.644Z,27.97
2023-08-15T19:08:09.781Z,27.92
2023-08-15T19:10:12.873Z,27.88
2023-08-15T19:12:17.016Z,27.85
2023-08-15T19:14:21.709Z,27.78
2023-08-15T19:16:24.945Z,27.72
2023-08-15T19:18:29.826Z,27.69
2023-08-15T19:20:34.833Z,27.65
2023-08-15T19:22:44.444Z,27.61
2023-08-15T19:24:48.098Z,27.59
2023-08-15T19:26:51.311Z,27.56
2023-08-15T19:28:55.712Z,27.53
2023-08-15T19:30:58.997Z,27.51
2023-08-15T19:33:02.201Z,27.49
2023-08-15T19:35:06.421Z,27.46
2023-08-15T19:37:11.214Z,27.43
2023-08-15T19:39:16.569Z,27.39
2023-08-15T19:41:19.552Z,27.36
2023-08-15T19:43:23.330Z,27.31
2023-08-15T19:45:29.595Z,27.28
2023-08-15T19:47:33.448Z,27.24
2023-08-15T19:49:37.691Z,27.19
2023-08-15T19:51:43.015Z,27.15
2023-08-15T19:53:46.713Z,27.11
2023-08-15T19:55:53.704Z,27.06
2023-08-15T19:57:57.904Z,27.03
2023-08-15T20:00:02.494Z,27.00
2023-08-15T20:02:06.246Z,26.97
2023-08-15T20:04:09.684Z,26.94
2023-08-15T20:06:12.392Z,26.89
2023-08-15T20:08:16.411Z,26.85
2023-08-15T20:10:19.428Z,26.80
2023-08-15T20:12:24.020Z,26.77
2023-08-15T20:14:29.540Z,26.73
2023-08-15T20:16:32.250Z,26.69
2023-08-15T20:18:34.964Z,26.67
2023-08-15T20:20:37.641Z,26.64
2023-08-15T20:22:40.577Z,26.60
2023-08-15T20:24:43.866Z,26.57
2023-08-15T20:26:47.163Z,26.54
2023-08-15T20:28:49.925Z,26.51
2023-08-15T20:30:52.751Z,26.48
2023-08-15T20:33:01.204Z,26.42
2023-08-15T20:35:04.683Z,26.38
2023-08-15T20:37:07.784Z,26.34
2023-08-15T20:39:10.856Z,26.31
2023-08-15T20:41:13.480Z,26.28
2023-08-15T20:43:17.133Z,26.26
2023-08-15T20:45:21.459Z,26.22
2023-08-15T20:47:25.632Z,26.19
2023-08-15T20:49:28.811Z,26.15
2023-08-15T20:51:32.269Z,26.11
2023-08-15T20:53:34.869Z,26.07
2023-08-15T20:55:37.540Z,26.03
2023-08-15T20:57:44.734Z,26.00
2023-08-15T20:59:47.551Z,25.97
2023-08-15T21:01:54.445Z,25.93
2023-08-15T21:03:57.227Z,25.89
2023-08-15T21:06:00.145Z,25.87
2023-08-15T21:08:04.639Z,25.84
2023-08-15T21:10:07.744Z,25.80
2023-08-15T21:12:10.804Z,25.77
2023-08-15T21:14:13.518Z,25.73
2023-08-15T21:16:16.499Z,25.71
2023-08-15T21:18:21.663Z,25.66
2023-08-15T21:20:31.142Z,25.63
2023-08-15T21:22:36.566Z,25.59
2023-08-15T21:24:40.356Z,25.55
2023-08-15T21:26:43.557Z,25.51
2023-08-15T21:28:46.539Z,25.48
2023-08-15T21:30:55.676Z,25.44
2023-08-15T21:32:58.805Z,25.43
2023-08-15T21:35:02.608Z,25.42
2023-08-15T21:37:07.473Z,25.41
2023-08-15T21:39:11.133Z,25.40
2023-08-15T21:41:18.400Z,25.37
2023-08-15T21:43:21.111Z,25.35
2023-08-15T21:45:24.212Z,25.34
2023-08-15T21:47:27.157Z,25.33
2023-08-15T21:49:30.275Z,25.31
2023-08-15T21:51:33.211Z,25.29
2023-08-15T21:53:36.549Z,25.27
2023-08-15T21:55:39.225Z,25.24
2023-08-15T21:57:42.941Z,25.22
2023-08-15T21:59:46.723Z,25.19
2023-08-15T22:01:50.809Z,25.17
2023-08-15T22:03:59.391Z,25.18
2023-08-15T22:06:05.846Z,25.18
2023-08-15T22:08:10.349Z,25.17
2023-08-15T22:10:15.693Z,25.13
2023-08-15T22:12:19.486Z,25.10
2023-08-15T22:14:22.822Z,25.09
2023-08-15T22:16:25.763Z,25.07
2023-08-15T22:18:28.698Z,25.04
2023-08-15T22:20:31.633Z,25.00
2023-08-15T22:22:36.195Z,24.96
2023-08-15T22:24:38.849Z,24.93
2023-08-15T22:26:44.376Z,24.88
2023-08-15T22:28:47.024Z,24.83
2023-08-15T22:30:49.913Z,24.79
2023-08-15T22:32:53.198Z,24.75
2023-08-15T22:34:58.912Z,24.71
2023-08-15T22:37:02.437Z,24.68
2023-08-15T22:39:05.671Z,24.65
2023-08-15T22:41:08.995Z,24.64
2023-08-15T22:43:11.593Z,24.62
2023-08-15T22:45:14.479Z,24.59
2023-08-15T22:47:18.233Z,24.57
2023-08-15T22:49:21.095Z,24.53
2023-08-15T22:51:23.814Z,24.47
2023-08-15T22:53:26.667Z,24.41
2023-08-15T22:57:57.174Z,24.29
2023-08-15T23:00:13.451Z,24.25
2023-08-15T23:02:16.436Z,24.22
2023-08-15T23:04:19.619Z,24.20
2023-08-15T23:06:24.470Z,24.17
2023-08-15T23:08:27.120Z,24.16
2023-08-15T23:10:29.928Z,24.13
2023-08-15T23:12:33.039Z,24.11
2023-08-15T23:14:35.866Z,24.10
2023-08-15T23:16:39.705Z,24.09
2023-08-15T23:18:42.397Z,24.08
2023-08-15T23:20:47.520Z,24.06
2023-08-15T23:22:50.067Z,24.05
2023-08-15T23:24:54.190Z,24.03
2023-08-15T23:26:57.412Z,24.01
2023-08-15T23:29:00.153Z,24.00
2023-08-15T23:31:04.624Z,23.98
2023-08-15T23:33:08.847Z,23.96
2023-08-15T23:35:14.546Z,23.94
2023-08-15T23:37:22.959Z,23.90
2023-08-15T23:39:26.266Z,23.86
2023-08-15T23:41:31.561Z,23.83
2023-08-15T23:43:35.984Z,23.83
2023-08-15T23:45:39.162Z,23.79
2023-08-15T23:47:42.623Z,23.78
2023-08-15T23:49:45.623Z,23.75
2023-08-15T23:51:51.176Z,23.73
2023-08-15T23:53:54.190Z,23.69
2023-08-15T23:55:56.877Z,23.65
2023-08-15T23:58:01.124Z,23.63
